Time;durP1;ratioP1;P1;durP2;ratioP2;P2;SDS_P1;SDS_P2;PMS_P1;PMS_P2;Temp;Humidity;BMP_temperature;BMP_pressure;BME280_temperature;BME280_humidity;BME280_pressure;Samples;Min_cycle;Max_cycle;Signal;HPM_P1;HPM_P2
2023/06/26 04:33:50;;;;;;;;;;;;;;;24.81;49.19;97108.84;4206760;27;10442;-68
2023/06/26 04:35:54;;;;;;;;;;;;;;;25.08;48.48;97100.34;4207921;28;5719;-67
2023/06/26 04:37:56;;;;;;;;;;;;;;;25.32;48.44;97110.50;4213190;28;6058;-67
2023/06/26 04:39:59;;;;;;;;;;;;;;;25.48;48.15;97112.00;4213808;28;5726;-68
2023/06/26 04:42:02;;;;;;;;;;;;;;;25.63;47.90;97113.81;4208029;28;5678;-68
2023/06/26 04:44:05;;;;;;;;;;;;;;;25.75;47.58;97106.19;4211383;28;5914;-68
2023/06/26 04:46:08;;;;;;;;;;;;;;;25.86;47.41;97112.31;4210001;28;5801;-68
2023/06/26 04:48:11;;;;;;;;;;;;;;;25.92;47.13;97111.97;4212156;28;7730;-68
2023/06/26 04:50:18;;;;;;;;;;;;;;;25.99;47.14;97117.88;4208341;28;5786;-68
2023/06/26 04:52:21;;;;;;;;;;;;;;;26.04;47.26;97123.25;4211112;28;5784;-67
2023/06/26 04:54:24;;;;;;;;;;;;;;;26.08;47.20;97127.03;4212257;28;5698;-68
2023/06/26 04:56:27;;;;;;;;;;;;;;;26.09;46.86;97120.50;4208701;28;5835;-68
2023/06/26 04:58:30;;;;;;;;;;;;;;;26.15;47.04;97125.88;4213160;28;5812;-67
2023/06/26 05:00:35;;;;;;;;;;;;;;;26.18;46.73;97131.56;4208968;28;5810;-67
2023/06/26 05:02:39;;;;;;;;;;;;;;;26.21;46.77;97132.88;4212359;28;5693;-67
2023/06/26 05:04:42;;;;;;;;;;;;;;;26.23;46.74;97127.97;4203303;28;5701;-67
2023/06/26 05:06:46;;;;;;;;;;;;;;;26.26;47.08;97116.56;4206662;28;5776;-67
2023/06/26 05:08:49;;;;;;;;;;;;;;;26.27;46.97;97123.59;4210272;28;5678;-67
2023/06/26 05:10:57;;;;;;;;;;;;;;;26.29;46.96;97119.53;4208661;28;5788;-67
2023/06/26 05:13:00;;;;;;;;;;;;;;;26.32;47.07;97121.66;4213005;28;5961;-67
2023/06/26 05:15:03;;;;;;;;;;;;;;;26.34;46.76;97127.59;4214295;28;5761;-67
2023/06/26 05:17:06;;;;;;;;;;;;;;;26.35;47.10;97120.25;4213221;28;7683;-67
2023/06/26 05:19:09;;;;;;;;;;;;;;;26.33;46.92;97117.03;4208171;28;5715;-67
2023/06/26 05:21:12;;;;;;;;;;;;;;;26.37;46.83;97109.97;4208729;28;5765;-68
2023/06/26 05:23:17;;;;;;;;;;;;;;;26.42;46.88;97112.66;4209060;28;5697;-67
2023/06/26 05:25:24;;;;;;;;;;;;;;;26.47;46.77;97111.78;4208914;28;5905;-67
2023/06/26 05:27:28;;;;;;;;;;;;;;;26.51;46.71;97113.63;4213014;28;5839;-67
2023/06/26 05:29:32;;;;;;;;;;;;;;;26.56;46.57;97105.44;4211031;28;5818;-67
2023/06/26 05:31:41;;;;;;;;;;;;;;;26.64;46.70;97114.84;4213205;28;5705;-68
2023/06/26 05:33:45;;;;;;;;;;;;;;;26.72;46.46;97113.38;4200284;28;5702;-68
2023/06/26 05:35:49;;;;;;;;;;;;;;;26.79;46.38;97111.94;4203036;28;5711;-68
2023/06/26 05:37:53;;;;;;;;;;;;;;;26.85;46.31;97113.53;4201414;28;5705;-68
2023/06/26 05:39:58;;;;;;;;;;;;;;;26.93;46.12;97120.19;4202661;28;5806;-68
2023/06/26 05:42:03;;;;;;;;;;;;;;;27.01;45.93;97126.88;4201793;28;6702;-63
2023/06/26 05:44:05;;;;;;;;;;;;;;;27.13;45.96;97130.81;4201082;28;5867;-63
2023/06/26 05:46:08;;;;;;;;;;;;;;;27.24;45.76;97126.88;4190380;28;5678;-63
2023/06/26 05:48:11;;;;;;;;;;;;;;;27.37;45.68;97116.38;4201547;28;6529;-63
2023/06/26 05:50:15;;;;;;;;;;;;;;;27.48;45.63;97120.56;4194280;28;5726;-63
2023/06/26 05:52:19;;;;;;;;;;;;;;;27.57;45.62;97113.38;4197042;28;5682;-63
2023/06/26 05:54:23;;;;;;;;;;;;;;;27.66;45.44;97106.22;4191571;28;5694;-63
2023/06/26 05:56:28;;;;;;;;;;;;;;;27.76;45.51;97095.19;4202398;28;6530;-62
2023/06/26 05:58:31;;;;;;;;;;;;;;;27.83;45.43;97092.09;4202647;28;5818;-63
2023/06/26 06:00:35;;;;;;;;;;;;;;;27.89;45.25;97096.34;4202551;28;5807;-62
2023/06/26 06:02:38;;;;;;;;;;;;;;;27.94;45.27;97101.69;4202416;28;6382;-63
2023/06/26 06:04:41;;;;;;;;;;;;;;;28.00;45.36;97099.69;4185960;28;5799;-63
2023/06/26 06:06:44;;;;;;;;;;;;;;;28.03;45.26;97104.53;4194460;28;5903;-63
2023/06/26 06:08:47;;;;;;;;;;;;;;;28.06;45.13;97112.88;4202016;28;5703;-63
2023/06/26 06:10:51;;;;;;;;;;;;;;;28.08;45.18;97105.25;4202309;28;5678;-62
2023/06/26 06:12:57;;;;;;;;;;;;;;;28.08;45.20;97107.16;4202356;28;5768;-63
2023/06/26 06:15:00;;;;;;;;;;;;;;;28.07;44.98;97106.34;4202443;28;5789;-62
2023/06/26 06:17:03;;;;;;;;;;;;;;;28.07;45.19;97105.53;4202099;28;5690;-62
2023/06/26 06:19:07;;;;;;;;;;;;;;;28.07;45.08;97110.97;4202165;28;5714;-62
2023/06/26 06:21:10;;;;;;;;;;;;;;;28.07;45.24;97117.22;4202407;28;5062;-62
2023/06/26 06:23:13;;;;;;;;;;;;;;;28.08;44.93;97126.19;4201880;28;5803;-62
2023/06/26 06:25:16;;;;;;;;;;;;;;;28.07;45.13;97124.56;4202381;28;5693;-63
2023/06/26 06:27:19;;;;;;;;;;;;;;;28.09;44.81;97125.09;4201954;28;5794;-62
2023/06/26 06:29:24;;;;;;;;;;;;;;;28.09;45.01;97116.94;4201825;28;5706;-62
2023/06/26 06:31:28;;;;;;;;;;;;;;;28.08;44.83;97112.59;4201892;28;5904;-62
2023/06/26 06:33:31;;;;;;;;;;;;;;;28.10;44.98;97115.84;4201712;28;6510;-62
2023/06/26 06:35:34;;;;;;;;;;;;;;;28.11;45.01;97122.88;4201947;28;5733;-62
2023/06/26 06:37:37;;;;;;;;;;;;;;;28.12;44.87;97121.78;4202000;28;5799;-62
2023/06/26 06:39:41;;;;;;;;;;;;;;;28.13;44.68;97120.66;4201514;28;5701;-62
2023/06/26 06:41:43;;;;;;;;;;;;;;;28.12;44.75;97119.06;4200760;28;5800;-62
2023/06/26 06:43:46;;;;;;;;;;;;;;;28.12;44.67;97119.06;4201852;28;5694;-62
2023/06/26 06:45:51;;;;;;;;;;;;;;;28.14;44.66;97111.41;4200491;28;5789;-62
2023/06/26 06:47:54;;;;;;;;;;;;;;;28.16;44.62;97109.19;4201838;28;5697;-62
2023/06/26 06:49:57;;;;;;;;;;;;;;;28.17;44.44;97107.28;4201846;28;5813;-63
2023/06/26 06:51:59;;;;;;;;;;;;;;;28.19;44.55;97105.06;4201566;28;5864;-62
2023/06/26 06:54:02;;;;;;;;;;;;;;;28.25;44.31;97103.88;4201223;28;5685;-63
2023/06/26 06:56:05;;;;;;;;;;;;;;;28.27;44.09;97105.22;4201923;28;5716;-62
2023/06/26 06:58:08;;;;;;;;;;;;;;;28.32;44.01;97112.50;4201338;28;5693;-62
2023/06/26 07:00:14;;;;;;;;;;;;;;;28.36;43.97;97100.72;4201721;28;5817;-62
2023/06/26 07:02:18;;;;;;;;;;;;;;;28.38;43.98;97103.13;4201690;28;5685;-62
2023/06/26 07:04:22;;;;;;;;;;;;;;;28.40;43.67;97100.91;4201653;28;5709;-62
2023/06/26 07:06:26;;;;;;;;;;;;;;;28.40;43.52;97114.50;4201393;28;5834;-62
2023/06/26 07:08:29;;;;;;;;;;;;;;;28.37;43.67;97110.47;4201256;28;5749;-62
2023/06/26 07:10:32;;;;;;;;;;;;;;;28.35;43.34;97098.28;4201581;28;5874;-61
2023/06/26 07:12:36;;;;;;;;;;;;;;;28.31;43.41;97106.22;4201366;28;7710;-62
2023/06/26 07:14:40;;;;;;;;;;;;;;;28.23;43.37;97109.63;4201495;28;5678;-62
2023/06/26 07:16:43;;;;;;;;;;;;;;;28.17;43.44;97110.81;4201287;28;5678;-62
2023/06/26 07:18:47;;;;;;;;;;;;;;;28.12;43.26;97111.72;4201412;28;5842;-62
2023/06/26 07:20:50;;;;;;;;;;;;;;;28.08;43.27;97112.59;4201416;28;5682;-62
2023/06/26 07:22:54;;;;;;;;;;;;;;;28.02;43.14;97116.50;4201079;28;5705;-62
2023/06/26 07:24:57;;;;;;;;;;;;;;;27.97;42.96;97117.38;4200897;28;5687;-62
2023/06/26 07:27:00;;;;;;;;;;;;;;;27.95;43.05;97107.91;4201093;28;5879;-62
2023/06/26 07:29:03;;;;;;;;;;;;;;;27.94;43.09;97103.59;4200995;28;5714;-62
2023/06/26 07:31:06;;;;;;;;;;;;;;;27.92;43.17;97108.53;4200731;28;5822;-62
2023/06/26 07:33:09;;;;;;;;;;;;;;;27.90;42.88;97110.75;4200653;28;5836;-62
2023/06/26 07:35:14;;;;;;;;;;;;;;;27.85;42.89;97114.31;4200916;28;5853;-62
2023/06/26 07:37:17;;;;;;;;;;;;;;;27.82;43.11;97104.06;4201145;28;5774;-63
2023/06/26 07:39:21;;;;;;;;;;;;;;;27.80;43.11;97100.84;4200979;28;5796;-63
2023/06/26 07:41:26;;;;;;;;;;;;;;;27.78;43.10;97106.56;4201045;28;5843;-62
2023/06/26 07:43:29;;;;;;;;;;;;;;;27.75;43.06;97109.88;4201004;28;5686;-62
2023/06/26 07:45:32;;;;;;;;;;;;;;;27.73;43.00;97109.34;4201040;28;5797;-62
2023/06/26 07:47:35;;;;;;;;;;;;;;;27.69;43.01;97104.81;4200930;28;5768;-62
2023/06/26 07:49:38;;;;;;;;;;;;;;;27.66;43.20;97117.09;4200740;28;5689;-62
2023/06/26 07:51:43;;;;;;;;;;;;;;;27.64;43.08;97113.84;4184044;28;5847;-63
2023/06/26 07:53:46;;;;;;;;;;;;;;;27.61;43.07;97102.72;4192968;28;5608;-63
2023/06/26 07:55:49;;;;;;;;;;;;;;;27.60;42.82;97107.34;4200944;28;5800;-63
2023/06/26 07:57:52;;;;;;;;;;;;;;;27.59;42.92;97102.22;4200566;28;5703;-63
2023/06/26 07:59:55;;;;;;;;;;;;;;;27.58;42.93;97101.41;4200888;28;5764;-63
2023/06/26 08:01:58;;;;;;;;;;;;;;;27.55;42.90;97102.81;4200645;28;5697;-63
2023/06/26 08:04:01;;;;;;;;;;;;;;;27.53;42.95;97101.50;4200621;28;5685;-63
2023/06/26 08:06:05;;;;;;;;;;;;;;;27.51;43.01;97099.06;4200686;28;5937;-62
2023/06/26 08:08:09;;;;;;;;;;;;;;;27.49;42.92;97100.47;4200634;28;5721;-62
2023/06/26 08:10:12;;;;;;;;;;;;;;;27.49;42.82;97114.03;4200710;28;5813;-63
2023/06/26 08:12:15;;;;;;;;;;;;;;;27.49;42.87;97116.75;4200519;28;5693;-63
2023/06/26 08:14:18;;;;;;;;;;;;;;;27.48;42.88;97121.38;4200622;28;5714;-63
2023/06/26 08:16:21;;;;;;;;;;;;;;;27.49;43.03;97108.59;4200473;28;5694;-63
2023/06/26 08:18:26;;;;;;;;;;;;;;;27.50;42.98;97110.22;4200899;28;5864;-63
2023/06/26 08:20:29;;;;;;;;;;;;;;;27.48;43.17;97115.94;4200711;28;5689;-63
2023/06/26 08:22:32;;;;;;;;;;;;;;;27.49;43.21;97116.75;4200267;28;5896;-63
2023/06/26 08:24:36;;;;;;;;;;;;;;;27.49;43.15;97111.31;4200173;28;5082;-63
2023/06/26 08:26:40;;;;;;;;;;;;;;;27.49;43.27;97111.31;4200333;28;5710;-65
2023/06/26 08:28:43;;;;;;;;;;;;;;;27.51;43.40;97115.34;4192468;28;5789;-62
2023/06/26 08:30:46;;;;;;;;;;;;;;;27.52;43.46;97111.56;4200419;28;5710;-63
2023/06/26 08:32:51;;;;;;;;;;;;;;;27.53;43.42;97101.50;4200082;28;5702;-63
2023/06/26 08:34:54;;;;;;;;;;;;;;;27.54;43.55;97103.13;4200888;28;5689;-62
2023/06/26 08:36:57;;;;;;;;;;;;;;;27.56;43.40;97101.72;4200442;28;5701;-62
2023/06/26 08:39:00;;;;;;;;;;;;;;;27.59;43.56;97103.03;4200232;28;6078;-62
2023/06/26 08:41:05;;;;;;;;;;;;;;;27.61;43.58;97105.44;4200417;28;5801;-62
2023/06/26 08:43:11;;;;;;;;;;;;;;;27.62;43.55;97094.28;4200318;28;5709;-63
2023/06/26 08:45:14;;;;;;;;;;;;;;;27.65;43.58;97098.38;4200395;28;5839;-62
2023/06/26 08:47:18;;;;;;;;;;;;;;;27.65;43.71;97099.19;4200206;28;5713;-63
2023/06/26 08:49:29;;;;;;;;;;;;;;;27.67;43.74;97088.81;4199135;28;5726;-62
2023/06/26 08:51:34;;;;;;;;;;;;;;;27.70;43.75;97090.13;4200017;28;5800;-62
2023/06/26 08:53:44;;;;;;;;;;;;;;;27.71;43.70;97086.31;4200064;28;7688;-62
2023/06/26 08:55:49;;;;;;;;;;;;;;;27.72;43.84;97085.22;4192687;28;5855;-62
2023/06/26 08:57:54;;;;;;;;;;;;;;;27.73;43.66;97084.91;4200385;28;5769;-62
2023/06/26 08:59:57;;;;;;;;;;;;;;;27.74;43.61;97086.50;4200318;28;5856;-62
2023/06/26 09:02:02;;;;;;;;;;;;;;;27.76;43.53;97083.53;4200489;28;5705;-62
2023/06/26 09:04:06;;;;;;;;;;;;;;;27.77;43.58;97088.66;4200195;28;5849;-62
2023/06/26 09:06:09;;;;;;;;;;;;;;;27.79;43.51;97082.94;4200016;28;5695;-62
2023/06/26 09:08:13;;;;;;;;;;;;;;;27.78;43.32;97082.13;4199706;28;5800;-62
2023/06/26 09:10:16;;;;;;;;;;;;;;;27.80;43.26;97090.78;4203416;28;5709;-62
2023/06/26 09:12:21;;;;;;;;;;;;;;;27.82;42.98;97088.56;4203424;28;5809;-61
2023/06/26 09:14:27;;;;;;;;;;;;;;;27.82;42.96;97088.56;4203126;28;5697;-62
2023/06/26 09:16:30;;;;;;;;;;;;;;;27.83;43.02;97095.59;4202913;28;5808;-62
2023/06/26 09:18:34;;;;;;;;;;;;;;;27.84;42.72;97091.78;4202973;28;5801;-62
2023/06/26 09:20:37;;;;;;;;;;;;;;;27.85;42.80;97093.41;4203163;28;5950;-62
2023/06/26 09:22:42;;;;;;;;;;;;;;;27.89;42.89;97090.91;4202899;28;5714;-61
2023/06/26 09:24:46;;;;;;;;;;;;;;;27.92;43.02;97103.09;4187000;28;5099;-62
2023/06/26 09:26:50;;;;;;;;;;;;;;;27.93;42.96;97091.13;4203118;28;5801;-62
2023/06/26 09:28:53;;;;;;;;;;;;;;;27.94;43.21;97092.72;4202944;28;5698;-62
2023/06/26 09:31:01;;;;;;;;;;;;;;;27.93;43.34;97089.19;4202797;28;5753;-62
2023/06/26 09:33:17;;;;;;;;;;;;;;;27.93;43.29;97088.41;4202768;28;5686;-62
2023/06/26 09:35:21;;;;;;;;;;;;;;;27.93;43.46;97089.19;4202796;28;5685;-62
2023/06/26 09:37:24;;;;;;;;;;;;;;;27.94;43.51;97085.38;4202834;28;6375;-62
2023/06/26 09:39:27;;;;;;;;;;;;;;;27.95;43.50;97088.91;4202730;28;5685;-62
2023/06/26 09:41:30;;;;;;;;;;;;;;;27.96;43.48;97093.22;4202630;28;5788;-62
2023/06/26 09:43:33;;;;;;;;;;;;;;;27.97;43.55;97101.06;4202633;28;5689;-62
2023/06/26 09:45:41;;;;;;;;;;;;;;;27.99;43.55;97096.19;4202656;28;5697;-62
2023/06/26 09:47:46;;;;;;;;;;;;;;;27.99;43.64;97088.03;4203013;28;5705;-62
2023/06/26 09:49:50;;;;;;;;;;;;;;;28.00;43.76;97088.84;4202678;28;5709;-62
2023/06/26 09:51:54;;;;;;;;;;;;;;;28.01;43.78;97091.25;4202451;28;5693;-62
2023/06/26 09:53:58;;;;;;;;;;;;;;;28.03;43.77;97088.22;4202477;28;5756;-62
2023/06/26 09:56:06;;;;;;;;;;;;;;;28.03;43.61;97091.75;4202156;28;5784;-62
2023/06/26 09:58:10;;;;;;;;;;;;;;;28.05;43.85;97092.25;4202466;28;5706;-62
2023/06/26 10:00:16;;;;;;;;;;;;;;;28.06;43.79;97093.06;4202526;28;5784;-63
2023/06/26 10:02:18;;;;;;;;;;;;;;;28.06;43.80;97084.91;4202811;28;5792;-62
2023/06/26 10:04:23;;;;;;;;;;;;;;;28.06;43.77;97083.00;4202810;28;5685;-63
2023/06/26 10:06:29;;;;;;;;;;;;;;;28.07;43.71;97084.59;4202139;28;5768;-63
2023/06/26 10:08:35;;;;;;;;;;;;;;;28.07;43.73;97083.78;4202315;28;5844;-62
2023/06/26 10:10:39;;;;;;;;;;;;;;;28.08;43.42;97082.69;4202388;28;5796;-63
2023/06/26 10:12:45;;;;;;;;;;;;;;;28.07;43.50;97084.59;4202293;28;5780;-63
2023/06/26 10:14:49;;;;;;;;;;;;;;;28.08;43.36;97086.22;4202529;28;5836;-62
2023/06/26 10:16:52;;;;;;;;;;;;;;;28.10;43.23;97083.22;4202405;28;5772;-63
2023/06/26 10:19:02;;;;;;;;;;;;;;;28.12;43.14;97070.94;4202301;28;5678;-64
2023/06/26 10:21:07;;;;;;;;;;;;;;;28.16;43.08;97078.50;4202172;28;5705;-63
2023/06/26 10:23:11;;;;;;;;;;;;;;;28.19;42.87;97075.97;4202046;28;5791;-63
2023/06/26 10:25:18;;;;;;;;;;;;;;;28.20;42.62;97083.03;4202016;28;5677;-62
2023/06/26 10:27:23;;;;;;;;;;;;;;;28.23;42.60;97090.59;4201257;28;5713;-62
2023/06/26 10:29:27;;;;;;;;;;;;;;;28.27;42.62;97086.19;4202086;28;5697;-62
2023/06/26 10:31:30;;;;;;;;;;;;;;;28.29;42.49;97086.69;4202172;28;5796;-62
2023/06/26 10:33:36;;;;;;;;;;;;;;;28.32;42.18;97085.31;4201819;28;5805;-61
2023/06/26 10:35:44;;;;;;;;;;;;;;;28.37;42.22;97079.75;4202042;28;5685;-63
2023/06/26 10:37:49;;;;;;;;;;;;;;;28.38;42.25;97081.38;4202123;28;5699;-63
2023/06/26 10:39:54;;;;;;;;;;;;;;;28.39;42.12;97081.06;4201439;28;7261;-63
2023/06/26 10:42:09;;;;;;;;;;;;;;;28.40;42.19;97087.31;4202113;28;6305;-62
2023/06/26 10:44:17;;;;;;;;;;;;;;;28.40;42.08;97088.13;4201966;28;5768;-63
2023/06/26 10:46:22;;;;;;;;;;;;;;;28.44;42.12;97087.53;4201913;28;5819;-63
2023/06/26 10:48:30;;;;;;;;;;;;;;;28.45;42.00;97083.72;4201906;28;5689;-62
2023/06/26 10:50:35;;;;;;;;;;;;;;;28.46;41.96;97086.13;4201663;28;5697;-62
2023/06/26 10:52:39;;;;;;;;;;;;;;;28.49;41.96;97084.72;4201595;28;5776;-63
2023/06/26 10:54:43;;;;;;;;;;;;;;;28.48;42.02;97080.38;4201692;28;5090;-63
2023/06/26 10:56:47;;;;;;;;;;;;;;;28.48;41.88;97080.38;4201591;28;5813;-63
2023/06/26 10:58:51;;;;;;;;;;;;;;;28.49;41.90;97079.25;4201557;28;5683;-63
2023/06/26 11:01:21;;;;;;;;;;;;;;;28.49;41.97;97079.25;4201638;28;5690;-63
2023/06/26 11:03:25;;;;;;;;;;;;;;;28.50;41.88;97075.44;4201643;28;5678;-62
2023/06/26 11:05:30;;;;;;;;;;;;;;;28.51;41.68;97077.06;4201499;28;5884;-63
2023/06/26 11:07:33;;;;;;;;;;;;;;;28.53;41.75;97077.53;4201235;28;6344;-63
2023/06/26 11:09:56;;;;;;;;;;;;;;;28.54;41.69;97069.13;4201150;28;5699;-63
2023/06/26 11:12:04;;;;;;;;;;;;;;;28.56;41.69;97069.59;4201398;28;5689;-62
2023/06/26 11:14:09;;;;;;;;;;;;;;;28.59;41.89;97073.63;4201371;28;5705;-63
2023/06/26 11:16:14;;;;;;;;;;;;;;;28.59;41.64;97068.19;4201200;28;5678;-61
2023/06/26 11:18:17;;;;;;;;;;;;;;;28.59;41.55;97066.28;4201242;28;5690;-62
2023/06/26 11:20:20;;;;;;;;;;;;;;;28.61;41.46;97071.41;4201216;28;5674;-62
2023/06/26 11:22:26;;;;;;;;;;;;;;;28.63;41.25;97066.47;4201057;28;5834;-62
2023/06/26 11:24:31;;;;;;;;;;;;;;;28.67;41.44;97070.22;4200916;28;5886;-63
2023/06/26 11:26:39;;;;;;;;;;;;;;;28.67;41.15;97071.03;4201121;28;5785;-62
2023/06/26 11:28:48;;;;;;;;;;;;;;;28.68;41.09;97061.75;4193107;28;5702;-63
2023/06/26 11:30:52;;;;;;;;;;;;;;;28.72;41.21;97061.94;4200922;28;5783;-63
2023/06/26 11:33:04;;;;;;;;;;;;;;;28.76;41.03;97073.00;4200471;28;5416;-63
2023/06/26 11:35:09;;;;;;;;;;;;;;;28.76;40.86;97070.28;4200920;28;5686;-63
2023/06/26 11:37:12;;;;;;;;;;;;;;;28.78;40.82;97068.09;4200723;28;5800;-62
2023/06/26 11:39:15;;;;;;;;;;;;;;;28.80;40.91;97072.13;4200480;28;6384;-63
2023/06/26 11:41:18;;;;;;;;;;;;;;;28.82;40.78;97069.91;4199607;28;5851;-61
2023/06/26 11:43:22;;;;;;;;;;;;;;;28.83;40.68;97074.22;4195482;28;5899;-63
2023/06/26 11:45:26;;;;;;;;;;;;;;;28.86;40.84;97076.31;4200396;28;5686;-63
2023/06/26 11:47:29;;;;;;;;;;;;;;;28.89;40.72;97073.06;4201037;28;5757;-61
2023/06/26 11:49:31;;;;;;;;;;;;;;;28.90;40.64;97074.66;4196595;28;5812;-61
2023/06/26 11:51:37;;;;;;;;;;;;;;;28.91;40.63;97068.09;4194770;28;5702;-62
2023/06/26 11:53:42;;;;;;;;;;;;;;;28.91;40.52;97065.38;4196245;28;5963;-61
2023/06/26 11:55:45;;;;;;;;;;;;;;;28.92;40.42;97067.00;4196348;28;5903;-62
2023/06/26 11:57:50;;;;;;;;;;;;;;;28.93;40.48;97063.16;4194897;28;5868;-62
2023/06/26 11:59:54;;;;;;;;;;;;;;;28.94;40.34;97063.97;4191577;28;5825;-62
2023/06/26 12:01:57;;;;;;;;;;;;;;;28.95;40.27;97065.56;4197155;28;5956;-62
2023/06/26 12:04:03;;;;;;;;;;;;;;;28.97;40.31;97064.16;4195639;28;5697;-62
2023/06/26 12:06:07;;;;;;;;;;;;;;;29.01;40.27;97058.91;4188693;28;5885;-63
2023/06/26 12:08:10;;;;;;;;;;;;;;;29.02;39.95;97065.16;4192223;28;5698;-62
2023/06/26 12:10:14;;;;;;;;;;;;;;;29.01;39.97;97069.81;4193336;28;5714;-62
2023/06/26 12:12:19;;;;;;;;;;;;;;;29.05;39.88;97070.00;4193934;28;5849;-63
2023/06/26 12:14:28;;;;;;;;;;;;;;;29.07;39.86;97056.88;4214712;28;5688;-63
2023/06/26 12:16:34;;;;;;;;;;;;;;;29.09;39.88;97054.66;4196126;28;5764;-63
2023/06/26 12:18:39;;;;;;;;;;;;;;;29.11;39.81;97060.59;4196245;28;5702;-63
2023/06/26 12:20:42;;;;;;;;;;;;;;;29.14;39.58;97057.28;4194090;28;5760;-63
2023/06/26 12:22:47;;;;;;;;;;;;;;;29.17;39.64;97053.94;4195975;28;5709;-63
2023/06/26 12:24:50;;;;;;;;;;;;;;;29.18;39.50;97052.81;4198480;28;5121;-63
2023/06/26 12:26:56;;;;;;;;;;;;;;;29.21;39.37;97054.91;4196724;28;5702;-62
2023/06/26 12:29:03;;;;;;;;;;;;;;;29.22;39.52;97062.81;4187846;28;5757;-63
2023/06/26 12:31:16;;;;;;;;;;;;;;;29.27;39.25;97051.00;4190163;28;5797;-63
2023/06/26 12:33:21;;;;;;;;;;;;;;;29.35;39.12;97058.44;4197474;28;5645;-62
2023/06/26 12:35:24;;;;;;;;;;;;;;;29.39;38.98;97059.41;4199905;28;5697;-63
2023/06/26 12:37:27;;;;;;;;;;;;;;;29.44;38.92;97061.19;4187923;28;7919;-62
2023/06/26 12:39:31;;;;;;;;;;;;;;;29.44;38.82;97056.56;4195032;28;5888;-62
2023/06/26 12:41:34;;;;;;;;;;;;;;;29.44;38.85;97059.28;4194700;28;5848;-62
2023/06/26 12:43:39;;;;;;;;;;;;;;;29.44;38.86;97062.00;4200024;28;5887;-61
2023/06/26 12:45:42;;;;;;;;;;;;;;;29.45;38.72;97055.47;4198865;28;5810;-62
2023/06/26 12:47:45;;;;;;;;;;;;;;;29.47;38.71;97044.28;4196550;28;5791;-63
2023/06/26 12:49:53;;;;;;;;;;;;;;;29.49;38.84;97047.50;4197170;28;5122;-62
2023/06/26 12:51:55;;;;;;;;;;;;;;;29.50;38.86;97047.19;4195672;28;5701;-62
2023/06/26 12:53:58;;;;;;;;;;;;;;;29.49;38.67;97040.16;4196361;28;5911;-62
2023/06/26 12:56:02;;;;;;;;;;;;;;;29.49;38.66;97040.16;4202015;28;5689;-62
2023/06/26 12:58:05;;;;;;;;;;;;;;;29.51;38.69;97032.47;4196048;28;5674;-61
2023/06/26 13:00:10;;;;;;;;;;;;;;;29.54;38.85;97034.56;4193823;28;5845;-62
2023/06/26 13:02:13;;;;;;;;;;;;;;;29.56;38.62;97026.91;4198331;28;5822;-62
2023/06/26 13:04:16;;;;;;;;;;;;;;;29.55;38.47;97024.47;4201622;28;5788;-62
2023/06/26 13:06:20;;;;;;;;;;;;;;;29.58;38.39;97023.88;4202259;28;5681;-62
2023/06/26 13:08:23;;;;;;;;;;;;;;;29.59;38.59;97021.94;4199569;28;5840;-62
2023/06/26 13:10:28;;;;;;;;;;;;;;;29.58;38.56;97017.63;4197442;28;5841;-63
2023/06/26 13:12:31;;;;;;;;;;;;;;;29.56;38.62;97026.06;4197019;28;5707;-63
2023/06/26 13:14:34;;;;;;;;;;;;;;;29.58;38.41;97023.06;4194672;28;5704;-63
2023/06/26 13:16:37;;;;;;;;;;;;;;;29.54;38.63;97012.78;4198392;28;6775;-63
2023/06/26 13:18:40;;;;;;;;;;;;;;;29.53;38.78;97015.81;4199363;28;5681;-62
2023/06/26 13:20:43;;;;;;;;;;;;;;;29.52;38.53;97003.31;4202900;28;5702;-62
2023/06/26 13:22:47;;;;;;;;;;;;;;;29.52;38.74;97015.00;4198110;28;5777;-62
2023/06/26 13:24:50;;;;;;;;;;;;;;;29.54;38.68;97015.50;4198247;28;5110;-62
2023/06/26 13:26:53;;;;;;;;;;;;;;;29.53;38.74;97005.72;4196414;28;5876;-62
2023/06/26 13:28:57;;;;;;;;;;;;;;;29.53;38.74;97013.88;4197642;28;5796;-62
2023/06/26 13:31:00;;;;;;;;;;;;;;;29.54;38.78;96998.34;4199655;28;6341;-62
2023/06/26 13:33:03;;;;;;;;;;;;;;;29.55;38.73;97005.41;4198880;28;5780;-62
2023/06/26 13:35:08;;;;;;;;;;;;;;;29.62;38.89;97007.69;4198440;28;6418;-62
2023/06/26 13:37:11;;;;;;;;;;;;;;;29.66;38.76;97011.41;4196434;28;5769;-62
2023/06/26 13:39:15;;;;;;;;;;;;;;;29.67;38.65;97004.84;4192927;28;5681;-63
2023/06/26 13:41:21;;;;;;;;;;;;;;;29.70;38.76;97001.50;4201025;28;5897;-63
2023/06/26 13:43:24;;;;;;;;;;;;;;;29.72;38.70;97002.00;4198926;28;5848;-62
2023/06/26 13:45:27;;;;;;;;;;;;;;;29.73;38.71;97000.88;4201633;28;5939;-63
2023/06/26 13:47:34;;;;;;;;;;;;;;;29.74;38.90;97000.56;4197942;28;5697;-63
2023/06/26 13:49:38;;;;;;;;;;;;;;;29.76;38.84;96998.34;4192713;28;5815;-63
2023/06/26 13:51:45;;;;;;;;;;;;;;;29.78;38.92;96995.28;4200560;28;5792;-63
2023/06/26 13:53:48;;;;;;;;;;;;;;;29.80;38.60;96995.81;4199130;28;5775;-63
2023/06/26 13:55:52;;;;;;;;;;;;;;;29.81;38.74;96997.41;4187421;28;5862;-63
2023/06/26 13:57:56;;;;;;;;;;;;;;;29.81;39.16;96994.69;4192787;28;5916;-64
2023/06/26 13:59:59;;;;;;;;;;;;;;;29.85;39.00;96984.75;4199163;28;7734;-62
2023/06/26 14:02:02;;;;;;;;;;;;;;;29.85;39.17;96990.22;4192952;28;5929;-62
2023/06/26 14:04:05;;;;;;;;;;;;;;;29.81;39.24;96984.59;4196106;28;6427;-62
2023/06/26 14:06:10;;;;;;;;;;;;;;;29.82;39.47;96983.47;4196948;28;5824;-61
2023/06/26 14:08:16;;;;;;;;;;;;;;;29.81;39.72;96990.03;4193781;28;5766;-61
2023/06/26 14:10:19;;;;;;;;;;;;;;;29.80;39.84;96971.28;4191948;28;5842;-60
2023/06/26 14:12:25;;;;;;;;;;;;;;;29.79;39.94;96986.03;4190631;28;5808;-61
2023/06/26 14:14:28;;;;;;;;;;;;;;;29.80;40.25;96987.63;4191444;28;5868;-61
2023/06/26 14:16:31;;;;;;;;;;;;;;;29.79;40.29;96978.66;4190355;28;5953;-63
2023/06/26 14:18:35;;;;;;;;;;;;;;;29.81;40.33;96981.06;4193406;28;5778;-63
2023/06/26 14:20:38;;;;;;;;;;;;;;;29.79;40.18;96973.22;4190754;28;5782;-63
2023/06/26 14:22:41;;;;;;;;;;;;;;;29.79;40.28;96977.84;4193340;28;6557;-63
2023/06/26 14:24:44;;;;;;;;;;;;;;;29.79;40.25;96978.66;4193729;28;6001;-64
2023/06/26 14:26:47;;;;;;;;;;;;;;;29.80;40.07;96976.72;4193808;28;5715;-63
2023/06/26 14:28:52;;;;;;;;;;;;;;;29.82;40.23;96979.94;4195283;28;5782;-62
2023/06/26 14:30:57;;;;;;;;;;;;;;;29.80;40.28;96971.28;4197310;28;5689;-62
2023/06/26 14:33:00;;;;;;;;;;;;;;;29.78;39.99;96970.75;4196850;28;5837;-62
2023/06/26 14:35:04;;;;;;;;;;;;;;;29.78;40.25;96962.59;4193359;28;5707;-62
2023/06/26 14:37:08;;;;;;;;;;;;;;;29.79;40.23;96969.69;4199834;28;5682;-63
2023/06/26 14:39:12;;;;;;;;;;;;;;;29.81;40.15;96967.44;4200132;28;5142;-62
2023/06/26 14:41:15;;;;;;;;;;;;;;;29.80;39.98;96963.91;4199172;28;5686;-62
2023/06/26 14:43:20;;;;;;;;;;;;;;;29.81;39.94;96970.16;4200618;28;5686;-61
2023/06/26 14:45:25;;;;;;;;;;;;;;;29.80;39.97;96966.63;4191530;28;5789;-62
2023/06/26 14:47:28;;;;;;;;;;;;;;;29.82;39.81;96967.13;4197083;28;5711;-63
2023/06/26 14:49:32;;;;;;;;;;;;;;;29.83;40.10;96962.47;4198555;28;5694;-63
2023/06/26 14:51:35;;;;;;;;;;;;;;;29.85;39.63;96968.41;4200171;28;5689;-64
2023/06/26 14:53:38;;;;;;;;;;;;;;;29.85;39.59;96962.97;4194424;28;5706;-63
2023/06/26 14:55:41;;;;;;;;;;;;;;;29.84;39.61;96964.09;4191046;28;5952;-63
2023/06/26 14:57:44;;;;;;;;;;;;;;;29.81;39.38;96956.53;4193771;28;5805;-63
2023/06/26 14:59:47;;;;;;;;;;;;;;;29.80;38.99;96963.09;4198505;28;5667;-62
2023/06/26 15:01:51;;;;;;;;;;;;;;;29.83;39.39;96963.28;4191410;28;5828;-62
2023/06/26 15:03:55;;;;;;;;;;;;;;;29.85;39.21;96962.97;4194787;28;5780;-62
2023/06/26 15:05:58;;;;;;;;;;;;;;;29.85;39.26;96962.97;4197210;28;5835;-62
2023/06/26 15:08:01;;;;;;;;;;;;;;;29.85;39.19;96963.75;4193990;28;5102;-63
2023/06/26 15:10:05;;;;;;;;;;;;;;;29.87;39.05;96960.72;4194716;28;6537;-63
2023/06/26 15:12:09;;;;;;;;;;;;;;;29.89;38.98;96954.94;4192685;28;5702;-63
2023/06/26 15:14:12;;;;;;;;;;;;;;;29.86;38.74;96954.47;4195537;28;5801;-63
2023/06/26 15:16:15;;;;;;;;;;;;;;;29.85;38.91;96955.59;4194744;28;6343;-62
2023/06/26 15:18:19;;;;;;;;;;;;;;;29.87;38.71;96949.81;4189399;28;5818;-62
2023/06/26 15:20:22;;;;;;;;;;;;;;;29.89;38.81;96958.47;4194843;28;5801;-62
2023/06/26 15:22:27;;;;;;;;;;;;;;;29.90;38.64;96953.84;4194983;28;6525;-62
2023/06/26 15:24:30;;;;;;;;;;;;;;;29.91;38.47;96959.00;4193033;28;5833;-62
2023/06/26 15:26:33;;;;;;;;;;;;;;;29.92;38.54;96957.06;4194649;28;5833;-62
2023/06/26 15:28:36;;;;;;;;;;;;;;;29.94;38.32;96955.63;4194061;28;5805;-62